Terminal Aerodrome Forecast
Issued by NWS

Current Version | Previous Version | Text Only | Print | Product List | Glossary On
Versions: 1 2 3 4 5 6 7 8 9 10 11 12
000
FTUS44 KLIX 031144
TAFMSY
TAF
KMSY 031144Z 0312/0412 31003KT P6SM FEW020 BKN250
     FM031300 36005KT P6SM FEW040
     FM032100 19007KT P6SM SCT050
     FM040200 20006KT P6SM SKC=

USA.gov is the U.S. government's official web portal to all federal, state and local government web resources and services.